TimeMST,TemperatureF,Dew PointF,Humidity,Sea Level PressureIn,VisibilityMPH,Wind Direction,Wind SpeedMPH,Gust SpeedMPH,PrecipitationIn,Events,Conditions,WindDirDegrees,DateUTC
12:03 AM,10.0,6.1,84,29.99,2.0,ESE,9.2,-,0.00,Snow,Light Snow,120,2013-12-31 07:03:00
12:28 AM,10.0,6.1,84,29.97,1.8,ESE,10.4,-,0.00,Snow,Light Snow,110,2013-12-31 07:28:00
12:41 AM,9.0,5.0,84,29.97,2.0,East,12.7,-,0.00,Snow,Light Snow,100,2013-12-31 07:41:00
12:48 AM,10.4,5.0,79,29.96,2.5,East,10.4,-,0.00,Snow,Light Snow,100,2013-12-31 07:48:00
12:53 AM,9.0,5.0,84,30.11,2.5,East,11.5,-,0.00,Snow,Light Snow,100,2013-12-31 07:53:00
1:53 AM,9.0,5.0,84,30.09,2.5,East,13.8,-,0.00,Snow,Light Snow,90,2013-12-31 08:53:00
2:08 AM,9.0,6.1,88,29.94,3.0,East,12.7,-,0.00,Snow,Light Snow,90,2013-12-31 09:08:00
2:17 AM,10.0,6.1,84,29.94,2.5,East,15.0,-,0.00,Snow,Light Snow,90,2013-12-31 09:17:00
2:24 AM,10.0,6.1,84,29.94,3.0,East,12.7,-,0.00,Snow,Light Snow,90,2013-12-31 09:24:00
2:38 AM,9.0,5.0,84,29.95,2.0,East,16.1,-,0.00,Snow,Light Snow,90,2013-12-31 09:38:00
2:53 AM,9.0,5.0,84,30.10,1.5,East,15.0,-,0.00,Snow,Light Snow,80,2013-12-31 09:53:00
3:25 AM,9.0,5.0,84,29.95,0.8,East,15.0,-,0.00,Snow,Light Snow,80,2013-12-31 10:25:00
3:49 AM,8.6,3.2,79,29.94,1.0,East,16.1,-,0.01,Snow,Light Snow,80,2013-12-31 10:49:00
3:53 AM,8.1,3.9,83,30.09,1.2,East,17.3,-,0.01,Snow,Light Snow,80,2013-12-31 10:53:00
4:53 AM,6.1,1.9,83,30.12,0.8,East,13.8,-,0.00,Snow,Light Snow,80,2013-12-31 11:53:00
5:01 AM,6.1,1.9,83,29.96,0.8,East,13.8,-,0.00,Snow,Light Snow,80,2013-12-31 12:01:00
5:29 AM,5.0,1.0,84,29.97,0.8,ENE,16.1,-,0.01,Snow,Light Snow,70,2013-12-31 12:29:00
5:46 AM,5.0,-0.0,80,29.98,1.0,East,15.0,-,0.01,Snow,Light Snow,80,2013-12-31 12:46:00
5:53 AM,3.9,-0.0,84,30.14,1.0,ENE,16.1,-,0.01,Snow,Light Snow,70,2013-12-31 12:53:00
6:05 AM,3.9,-0.0,84,29.98,1.2,East,16.1,-,0.00,Snow,Light Snow,80,2013-12-31 13:05:00
6:39 AM,3.0,-0.9,84,30.00,3.0,ENE,16.1,-,0.00,Snow,Light Snow,70,2013-12-31 13:39:00
6:53 AM,3.0,-2.0,80,30.19,6.0,East,12.7,-,0.00,,Haze,80,2013-12-31 13:53:00
7:53 AM,1.9,-2.0,83,30.19,6.0,East,17.3,-,N/A,,Overcast,90,2013-12-31 14:53:00
8:31 AM,1.9,-2.0,83,30.05,6.0,East,11.5,-,N/A,,Overcast,90,2013-12-31 15:31:00
8:53 AM,1.9,-2.9,80,30.24,5.0,East,11.5,-,N/A,,Haze,90,2013-12-31 15:53:00
9:44 AM,1.9,-2.0,83,30.06,2.5,East,11.5,-,0.00,Snow,Light Snow,90,2013-12-31 16:44:00
9:53 AM,1.9,-2.9,80,30.24,3.0,East,11.5,-,0.00,Snow,Light Snow,100,2013-12-31 16:53:00
10:38 AM,1.9,-2.9,80,30.07,2.5,East,10.4,-,0.00,Snow,Light Snow,90,2013-12-31 17:38:00
10:53 AM,1.9,-2.9,80,30.25,2.5,East,12.7,-,0.00,Snow,Light Snow,90,2013-12-31 17:53:00
11:15 AM,1.9,-2.9,80,30.06,1.8,East,13.8,-,0.00,Snow,Light Snow,90,2013-12-31 18:15:00
11:53 AM,1.9,-4.0,76,30.23,1.0,ESE,13.8,-,0.00,Snow,Light Snow,110,2013-12-31 18:53:00
12:10 PM,1.9,-4.0,76,30.05,2.5,ESE,11.5,-,0.00,Snow,Light Snow,120,2013-12-31 19:10:00
12:12 PM,1.9,-4.0,76,30.05,3.0,ESE,9.2,-,0.00,,Haze,110,2013-12-31 19:12:00
12:23 PM,1.9,-2.9,80,30.04,1.8,ESE,13.8,-,0.00,Snow,Light Snow,110,2013-12-31 19:23:00
12:34 PM,1.9,-2.9,80,30.03,0.5,SE,13.8,-,0.00,Snow,Snow,130,2013-12-31 19:34:00
12:53 PM,1.9,-2.9,80,30.20,1.0,ESE,12.7,-,0.00,Snow,Light Snow,110,2013-12-31 19:53:00
1:53 PM,1.9,-2.9,80,30.19,1.8,ESE,12.7,-,0.00,Snow,Light Snow,120,2013-12-31 20:53:00
2:00 PM,1.9,-2.9,80,30.01,2.0,ESE,11.5,-,0.00,Snow,Light Snow,110,2013-12-31 21:00:00
2:11 PM,1.9,-2.9,80,30.01,4.0,ESE,13.8,-,0.00,,Haze,110,2013-12-31 21:11:00
2:36 PM,1.9,-2.9,80,30.01,2.0,ESE,13.8,-,0.00,Snow,Light Snow,110,2013-12-31 21:36:00
2:53 PM,1.9,-2.9,80,30.19,2.5,East,13.8,-,0.00,Snow,Light Snow,100,2013-12-31 21:53:00
3:13 PM,1.9,-2.9,80,30.01,1.2,ESE,15.0,-,0.00,Snow,Light Snow,110,2013-12-31 22:13:00
3:24 PM,1.9,-2.9,80,30.01,1.0,East,15.0,-,0.00,Snow,Light Snow,100,2013-12-31 22:24:00
3:53 PM,1.0,-2.9,83,30.21,0.5,ESE,17.3,-,0.00,Fog-Snow,Light Snow,110,2013-12-31 22:53:00
4:29 PM,1.9,-2.9,80,30.04,1.5,ESE,13.8,-,0.00,Snow,Light Snow,110,2013-12-31 23:29:00
4:53 PM,1.9,-2.9,80,30.23,1.2,East,10.4,-,0.00,Snow,Light Snow,100,2013-12-31 23:53:00
5:32 PM,1.9,-2.0,83,30.03,2.0,ESE,15.0,-,0.00,Snow,Light Snow,110,2014-01-01 00:32:00
5:53 PM,1.9,-2.9,80,30.21,4.0,SE,17.3,-,0.00,,Haze,130,2014-01-01 00:53:00
6:42 PM,1.0,-4.0,79,30.04,7.0,ESE,17.3,-,N/A,,Overcast,110,2014-01-01 01:42:00
6:53 PM,1.0,-4.0,79,30.25,9.0,ESE,13.8,-,N/A,,Overcast,120,2014-01-01 01:53:00
7:53 PM,-0.0,-4.0,83,30.26,5.0,SE,10.4,-,N/A,,Overcast,130,2014-01-01 02:53:00
8:53 PM,-0.0,-5.1,79,30.28,6.0,ESE,11.5,-,N/A,,Haze,110,2014-01-01 03:53:00
9:53 PM,-0.9,-5.1,83,30.27,3.0,SE,11.5,-,N/A,,Overcast,130,2014-01-01 04:53:00
10:03 PM,-0.9,-5.1,83,30.07,4.0,SE,10.4,-,N/A,,Overcast,140,2014-01-01 05:03:00
10:53 PM,-0.9,-5.1,83,30.28,4.0,SSE,10.4,-,N/A,,Overcast,150,2014-01-01 05:53:00
11:53 PM,-0.9,-5.1,83,30.29,6.0,SSE,6.9,-,N/A,,Overcast,150,2014-01-01 06:53:00